createdAt,value
2018-11-29T00:02:02.793Z,41.47
2018-11-29T00:04:31.747Z,34.00
2018-11-29T00:06:59.762Z,38.63
2018-11-29T00:09:28.179Z,35.20
2018-11-29T00:11:56.257Z,42.07
2018-11-29T00:14:24.375Z,37.00
2018-11-29T00:16:52.385Z,38.03
2018-11-29T00:19:20.387Z,23.10
2018-11-29T00:21:48.395Z,39.47
2018-11-29T00:24:16.395Z,36.07
2018-11-29T00:26:44.395Z,35.00
2018-11-29T00:29:12.396Z,35.30
2018-11-29T00:31:40.501Z,34.50
2018-11-29T00:34:08.509Z,37.93
2018-11-29T00:36:36.579Z,36.93
2018-11-29T00:39:05.866Z,38.93
2018-11-29T00:41:33.891Z,32.53
2018-11-29T00:44:01.931Z,37.10
2018-11-29T00:46:29.984Z,34.67
2018-11-29T00:48:58.013Z,34.50
2018-11-29T00:51:26.075Z,31.80
2018-11-29T00:53:54.067Z,34.67
2018-11-29T00:56:22.078Z,31.70
2018-11-29T00:58:50.118Z,30.93
2018-11-29T01:01:18.158Z,36.03
2018-11-29T01:03:46.187Z,38.40
2018-11-29T01:06:14.204Z,34.80
2018-11-29T01:08:42.310Z,40.40
2018-11-29T01:11:10.411Z,34.27
2018-11-29T01:13:38.410Z,32.50
2018-11-29T01:16:06.454Z,32.10
2018-11-29T01:18:34.522Z,32.13
2018-11-29T01:21:02.547Z,26.57
2018-11-29T01:23:30.549Z,31.80
2018-11-29T01:25:58.579Z,32.83
2018-11-29T01:28:26.619Z,34.50
2018-11-29T01:30:54.667Z,35.00
2018-11-29T01:33:22.691Z,36.47
2018-11-29T01:35:50.707Z,32.83
2018-11-29T01:38:18.720Z,32.23
2018-11-29T01:40:46.779Z,28.93
2018-11-29T01:43:14.767Z,33.40
2018-11-29T01:45:42.786Z,36.90
2018-11-29T01:48:10.847Z,32.67
2018-11-29T01:50:38.859Z,32.23
2018-11-29T01:53:06.883Z,34.70
2018-11-29T01:55:34.935Z,32.37
2018-11-29T01:58:03.100Z,33.93
2018-11-29T02:00:31.126Z,45.90
2018-11-29T02:02:59.186Z,27.50
2018-11-29T02:05:27.199Z,40.73
2018-11-29T02:07:55.214Z,30.33
2018-11-29T02:10:25.791Z,33.80
2018-11-29T02:12:54.154Z,33.57
2018-11-29T02:15:22.263Z,31.50
2018-11-29T02:17:50.317Z,30.00
2018-11-29T02:20:18.975Z,32.90
2018-11-29T02:22:47.409Z,34.23
2018-11-29T02:25:15.477Z,36.10
2018-11-29T02:27:43.473Z,33.10
2018-11-29T02:30:14.973Z,28.30
2018-11-29T02:32:42.965Z,34.57
2018-11-29T02:35:10.963Z,37.57
2018-11-29T02:37:38.983Z,32.40
2018-11-29T02:40:10.806Z,35.93
2018-11-29T02:42:38.996Z,30.90
2018-11-29T02:45:12.288Z,27.47
2018-11-29T02:47:40.393Z,34.67
2018-11-29T02:50:09.235Z,33.03
2018-11-29T02:52:37.285Z,35.50
2018-11-29T02:55:07.643Z,40.47
2018-11-29T02:57:35.752Z,35.43
2018-11-29T03:00:07.001Z,29.63
2018-11-29T03:02:35.016Z,30.70
2018-11-29T03:05:03.027Z,37.87
2018-11-29T03:07:31.034Z,34.43
2018-11-29T03:09:59.084Z,30.97
2018-11-29T03:12:27.140Z,35.03
2018-11-29T03:14:55.159Z,27.07
2018-11-29T03:17:23.188Z,31.33
2018-11-29T03:19:51.227Z,35.10
2018-11-29T03:22:19.220Z,33.13
2018-11-29T03:24:47.246Z,27.90
2018-11-29T03:27:15.305Z,29.03
2018-11-29T03:29:43.332Z,32.10
2018-11-29T03:32:11.361Z,33.00
2018-11-29T03:34:39.704Z,29.67
2018-11-29T03:37:07.839Z,28.00
2018-11-29T03:39:35.931Z,26.40
2018-11-29T03:42:03.923Z,36.13
2018-11-29T03:44:31.939Z,31.53
2018-11-29T03:46:59.951Z,33.93
2018-11-29T03:49:28.151Z,28.40
2018-11-29T03:51:56.186Z,27.50
2018-11-29T03:54:24.201Z,34.37
2018-11-29T03:56:52.227Z,30.90
2018-11-29T03:59:20.283Z,39.20
2018-11-29T04:01:54.802Z,35.03
2018-11-29T04:04:22.817Z,38.60
2018-11-29T04:06:50.844Z,26.60
2018-11-29T04:09:18.865Z,31.80
2018-11-29T04:11:46.895Z,29.17
2018-11-29T04:14:14.895Z,29.33
2018-11-29T04:16:42.922Z,32.80
2018-11-29T04:19:10.934Z,30.50
2018-11-29T04:21:38.953Z,32.20
2018-11-29T04:24:06.980Z,36.73
2018-11-29T04:26:35.022Z,29.57
2018-11-29T04:29:03.071Z,32.13
2018-11-29T04:31:31.097Z,31.23
2018-11-29T04:33:59.137Z,28.60
2018-11-29T04:36:27.182Z,35.70
2018-11-29T04:38:55.245Z,29.90
2018-11-29T04:41:23.335Z,30.13
2018-11-29T04:43:51.332Z,35.17
2018-11-29T04:46:52.313Z,40.90
2018-11-29T04:49:20.348Z,31.40
2018-11-29T04:51:48.400Z,35.27
2018-11-29T04:54:16.441Z,27.77
2018-11-29T04:56:44.471Z,29.17
2018-11-29T04:59:12.487Z,32.93
2018-11-29T05:01:40.549Z,27.37
2018-11-29T05:04:08.581Z,34.57
2018-11-29T05:06:36.654Z,26.17
2018-11-29T05:09:07.853Z,30.27
2018-11-29T05:11:35.926Z,30.60
2018-11-29T05:14:04.054Z,30.93
2018-11-29T05:16:32.052Z,32.90
2018-11-29T05:19:00.130Z,33.80
2018-11-29T05:21:28.174Z,29.13
2018-11-29T05:23:56.173Z,32.60
2018-11-29T05:26:24.262Z,30.03
2018-11-29T05:28:52.246Z,32.83
2018-11-29T05:31:20.287Z,28.77
2018-11-29T05:33:48.344Z,25.70
2018-11-29T05:36:16.371Z,35.00
2018-11-29T05:38:44.411Z,33.27
2018-11-29T05:41:13.551Z,34.73
2018-11-29T05:43:41.566Z,27.90
2018-11-29T05:46:09.578Z,29.70
2018-11-29T05:48:37.582Z,33.30
2018-11-29T05:51:05.664Z,32.70
2018-11-29T05:53:33.684Z,35.43
2018-11-29T05:56:01.690Z,33.30
2018-11-29T05:58:29.754Z,33.33
2018-11-29T06:01:00.379Z,33.20
2018-11-29T06:03:28.451Z,31.23
2018-11-29T06:05:56.480Z,30.50
2018-11-29T06:08:24.495Z,34.80
2018-11-29T06:10:52.535Z,33.93
2018-11-29T06:13:20.543Z,33.93
2018-11-29T06:15:48.639Z,34.90
2018-11-29T06:18:16.822Z,33.40
2018-11-29T06:20:44.923Z,35.63
2018-11-29T06:23:12.922Z,36.53
2018-11-29T06:25:40.996Z,38.07
2018-11-29T06:28:09.005Z,34.30
2018-11-29T06:30:37.135Z,34.83
2018-11-29T06:33:05.226Z,37.07
2018-11-29T06:35:33.255Z,39.43
2018-11-29T06:38:01.451Z,36.80
2018-11-29T06:40:29.535Z,38.63
2018-11-29T06:42:57.767Z,38.53
2018-11-29T06:45:25.775Z,34.20
2018-11-29T06:47:53.816Z,34.87
2018-11-29T06:50:21.822Z,36.30
2018-11-29T06:52:51.185Z,37.00
2018-11-29T06:55:23.183Z,41.87
2018-11-29T06:57:51.774Z,43.37
2018-11-29T07:00:23.755Z,32.87
2018-11-29T07:02:51.750Z,43.90
2018-11-29T07:05:19.776Z,43.40
2018-11-29T07:07:48.047Z,43.03
2018-11-29T07:10:16.160Z,47.10
2018-11-29T07:12:44.437Z,43.93
2018-11-29T07:15:13.180Z,39.93
2018-11-29T07:17:42.451Z,45.03
2018-11-29T07:20:16.366Z,44.43
2018-11-29T07:22:44.841Z,45.90
2018-11-29T07:25:12.835Z,40.03
2018-11-29T07:27:40.906Z,42.40
2018-11-29T07:30:14.651Z,35.33
2018-11-29T07:32:42.659Z,32.40
2018-11-29T07:35:11.711Z,35.13
2018-11-29T07:37:39.986Z,38.97
2018-11-29T07:40:13.126Z,41.43
2018-11-29T07:42:41.134Z,37.17
2018-11-29T07:45:11.109Z,47.03
2018-11-29T07:47:39.099Z,44.43
2018-11-29T07:50:09.770Z,40.57
2018-11-29T07:52:37.779Z,41.53
2018-11-29T07:55:09.202Z,47.03
2018-11-29T07:57:37.211Z,40.43
2018-11-29T08:00:07.086Z,40.77
2018-11-29T08:02:35.140Z,47.10
2018-11-29T08:05:03.143Z,48.20
2018-11-29T08:07:31.226Z,47.77
2018-11-29T08:09:59.307Z,46.73
2018-11-29T08:12:27.317Z,44.80
2018-11-29T08:14:55.342Z,39.23
2018-11-29T08:17:23.547Z,43.00
2018-11-29T08:19:51.589Z,44.50
2018-11-29T08:22:19.776Z,40.20
2018-11-29T08:24:47.806Z,47.17
2018-11-29T08:27:15.805Z,43.90
2018-11-29T08:29:43.850Z,45.97
2018-11-29T08:32:11.999Z,37.67
2018-11-29T08:34:40.007Z,36.23
2018-11-29T08:37:08.063Z,41.47
2018-11-29T08:39:36.120Z,42.57
2018-11-29T08:42:04.136Z,47.10
2018-11-29T08:44:32.182Z,46.03
2018-11-29T08:47:00.257Z,43.73
2018-11-29T08:49:28.282Z,39.80
2018-11-29T08:51:57.025Z,42.23
2018-11-29T08:54:25.076Z,38.13
2018-11-29T08:56:53.070Z,35.53
2018-11-29T08:59:21.114Z,43.13
2018-11-29T09:01:49.150Z,31.17
2018-11-29T09:04:17.444Z,36.70
2018-11-29T09:06:45.472Z,38.60
2018-11-29T09:09:13.496Z,41.80
2018-11-29T09:11:41.594Z,43.77
2018-11-29T09:14:09.603Z,42.40
2018-11-29T09:16:37.628Z,44.27
2018-11-29T09:19:05.682Z,36.97
2018-11-29T09:21:33.890Z,38.80
2018-11-29T09:24:01.916Z,35.77
2018-11-29T09:26:30.016Z,46.63
2018-11-29T09:28:58.078Z,45.37
2018-11-29T09:31:26.107Z,40.93
2018-11-29T09:33:54.095Z,41.03
2018-11-29T09:36:22.150Z,34.10
2018-11-29T09:38:50.180Z,33.80
2018-11-29T09:41:18.287Z,38.47
2018-11-29T09:43:46.291Z,44.07
2018-11-29T09:46:14.384Z,33.47
2018-11-29T09:48:42.555Z,39.70
2018-11-29T09:51:10.581Z,40.97
2018-11-29T09:53:38.590Z,44.50
2018-11-29T09:56:06.618Z,39.10
2018-11-29T09:58:34.743Z,45.60
2018-11-29T10:01:02.827Z,43.60
2018-11-29T10:03:30.847Z,44.50
2018-11-29T10:05:58.867Z,44.77
2018-11-29T10:08:26.870Z,40.20
2018-11-29T10:10:54.864Z,43.40
2018-11-29T10:13:24.681Z,37.07
2018-11-29T10:15:52.723Z,43.47
2018-11-29T10:18:20.764Z,38.27
2018-11-29T10:20:48.818Z,40.97
2018-11-29T10:23:16.872Z,37.40
2018-11-29T10:25:44.866Z,38.93
2018-11-29T10:28:14.078Z,39.20
2018-11-29T10:30:53.736Z,39.17
2018-11-29T10:33:21.823Z,35.27
2018-11-29T10:35:49.825Z,38.30
2018-11-29T10:38:17.962Z,40.80
2018-11-29T10:40:45.995Z,36.80
2018-11-29T10:43:14.010Z,40.60
2018-11-29T10:45:42.034Z,38.97
2018-11-29T10:48:13.815Z,39.93
2018-11-29T10:50:41.811Z,46.60
2018-11-29T10:53:10.831Z,46.20
2018-11-29T10:55:38.862Z,43.90
2018-11-29T10:58:06.893Z,38.37
2018-11-29T11:00:39.148Z,46.80
2018-11-29T11:03:13.116Z,50.30
2018-11-29T11:05:41.209Z,40.60
2018-11-29T11:08:09.591Z,54.83
2018-11-29T11:10:38.510Z,40.07
2018-11-29T11:13:06.870Z,40.60
2018-11-29T11:15:35.096Z,39.30
2018-11-29T11:18:03.256Z,45.80
2018-11-29T11:20:31.551Z,42.10
2018-11-29T11:22:59.618Z,49.80
2018-11-29T11:25:27.669Z,40.43
2018-11-29T11:27:55.683Z,37.23
2018-11-29T11:30:23.703Z,60.97
2018-11-29T11:32:52.551Z,46.03
2018-11-29T11:35:20.614Z,45.27
2018-11-29T11:37:48.654Z,46.83
2018-11-29T11:40:17.245Z,44.83
2018-11-29T11:42:46.043Z,48.27
2018-11-29T11:45:17.046Z,45.77
2018-11-29T11:47:45.183Z,45.33
2018-11-29T11:50:17.175Z,50.47
2018-11-29T11:52:45.264Z,43.17
2018-11-29T11:55:18.974Z,42.23
2018-11-29T11:57:42.135Z,45.47
2018-11-29T12:00:29.449Z,44.53
2018-11-29T12:03:00.705Z,42.33
2018-11-29T12:05:28.885Z,47.17
2018-11-29T12:07:56.904Z,45.97
2018-11-29T12:10:24.906Z,43.10
2018-11-29T12:12:52.929Z,30.47
2018-11-29T12:15:20.971Z,34.20
2018-11-29T12:17:49.041Z,48.73
2018-11-29T12:20:17.780Z,40.90
2018-11-29T12:22:45.783Z,39.93
2018-11-29T12:25:14.772Z,37.73
2018-11-29T12:27:42.794Z,34.93
2018-11-29T12:30:21.027Z,35.93
2018-11-29T12:32:49.059Z,35.80
2018-11-29T12:35:17.088Z,41.30
2018-11-29T12:37:45.122Z,34.40
2018-11-29T12:40:14.314Z,32.27
2018-11-29T12:42:42.330Z,35.53
2018-11-29T12:45:11.305Z,37.70
2018-11-29T12:47:39.303Z,37.57
2018-11-29T12:50:15.115Z,36.73
2018-11-29T12:52:43.148Z,43.00
2018-11-29T12:55:11.983Z,30.43
2018-11-29T12:57:40.007Z,30.00
2018-11-29T13:00:12.913Z,35.83
2018-11-29T13:02:44.892Z,38.57
2018-11-29T13:05:12.899Z,33.80
2018-11-29T13:07:43.350Z,37.67
2018-11-29T13:10:09.268Z,30.73
2018-11-29T13:12:37.428Z,34.50
2018-11-29T13:15:09.316Z,45.10
2018-11-29T13:17:37.399Z,37.07
2018-11-29T13:20:08.602Z,33.60
2018-11-29T13:22:36.665Z,35.17
2018-11-29T13:25:06.066Z,31.70
2018-11-29T13:27:34.075Z,33.57
2018-11-29T13:30:02.170Z,31.13
2018-11-29T13:32:30.287Z,32.23
2018-11-29T13:34:58.329Z,26.13
2018-11-29T13:37:26.339Z,28.27
2018-11-29T13:39:54.339Z,31.43
2018-11-29T13:42:22.476Z,28.27
2018-11-29T13:44:50.533Z,26.57
2018-11-29T13:47:18.648Z,29.73
2018-11-29T13:49:46.743Z,29.17
2018-11-29T13:52:14.860Z,30.13
2018-11-29T13:54:42.987Z,29.27
2018-11-29T13:57:10.995Z,32.73
2018-11-29T13:59:39.015Z,23.13
2018-11-29T14:02:07.014Z,31.97
2018-11-29T14:04:35.033Z,25.27
2018-11-29T14:07:03.013Z,25.90
2018-11-29T14:09:31.053Z,35.23
2018-11-29T14:11:59.112Z,23.03
2018-11-29T14:14:27.298Z,31.60
2018-11-29T14:16:55.326Z,29.80
2018-11-29T14:19:23.547Z,26.97
2018-11-29T14:21:51.724Z,26.90
2018-11-29T14:24:19.704Z,29.20
2018-11-29T14:26:47.741Z,32.90
2018-11-29T14:29:16.703Z,24.03
2018-11-29T14:31:44.693Z,26.03
2018-11-29T14:34:12.739Z,27.00
2018-11-29T14:36:40.811Z,24.00
2018-11-29T14:39:08.814Z,23.80
2018-11-29T14:41:36.872Z,26.73
2018-11-29T14:44:04.999Z,27.30
2018-11-29T14:46:33.022Z,25.47
2018-11-29T14:49:01.022Z,23.10
2018-11-29T14:51:29.040Z,21.73
2018-11-29T14:53:57.051Z,29.53
2018-11-29T14:56:25.110Z,22.83
2018-11-29T14:58:54.135Z,23.30
2018-11-29T15:01:22.390Z,25.70
2018-11-29T15:03:50.540Z,22.20
2018-11-29T15:06:18.573Z,22.60
2018-11-29T15:08:46.567Z,25.30
2018-11-29T15:11:14.577Z,25.17
2018-11-29T15:13:42.623Z,19.13
2018-11-29T15:16:10.641Z,21.63
2018-11-29T15:18:38.668Z,27.00
2018-11-29T15:21:06.687Z,26.80
2018-11-29T15:23:34.691Z,23.57
2018-11-29T15:26:02.697Z,19.17
2018-11-29T15:28:30.767Z,22.17
2018-11-29T15:30:58.779Z,22.90
2018-11-29T15:33:26.754Z,22.60
2018-11-29T15:35:54.755Z,27.30
2018-11-29T15:38:22.771Z,22.13
2018-11-29T15:40:50.787Z,20.20
2018-11-29T15:43:18.783Z,19.70
2018-11-29T15:45:46.807Z,25.60
2018-11-29T15:48:14.804Z,17.57
2018-11-29T15:50:42.825Z,22.87
2018-11-29T15:53:10.839Z,20.67
2018-11-29T15:55:38.866Z,18.93
2018-11-29T15:58:06.826Z,19.77
2018-11-29T16:00:34.831Z,26.03
2018-11-29T16:03:05.674Z,20.30
2018-11-29T16:05:33.679Z,22.13
2018-11-29T16:08:01.718Z,29.27
2018-11-29T16:10:29.703Z,20.90
2018-11-29T16:12:57.699Z,23.43
2018-11-29T16:15:25.742Z,26.70
2018-11-29T16:17:53.915Z,21.17
2018-11-29T16:20:24.930Z,24.10
2018-11-29T16:22:53.008Z,22.57
2018-11-29T16:25:21.152Z,20.17
2018-11-29T16:27:49.175Z,23.47
2018-11-29T16:30:23.847Z,20.97
2018-11-29T16:32:51.976Z,21.30
2018-11-29T16:35:20.049Z,22.83
2018-11-29T16:37:48.058Z,21.00
2018-11-29T16:40:16.099Z,22.73
2018-11-29T16:42:44.146Z,21.20
2018-11-29T16:45:13.216Z,23.30
2018-11-29T16:47:41.666Z,20.10
2018-11-29T16:50:12.970Z,22.67
2018-11-29T16:52:40.995Z,22.37
2018-11-29T16:55:10.043Z,23.40
2018-11-29T16:57:38.660Z,25.70
2018-11-29T17:00:14.430Z,29.13
2018-11-29T17:02:42.460Z,21.73
2018-11-29T17:05:12.512Z,22.30
2018-11-29T17:07:40.533Z,19.27
2018-11-29T17:10:11.506Z,17.00
2018-11-29T17:12:39.635Z,25.77
2018-11-29T17:15:09.798Z,18.63
2018-11-29T17:17:37.810Z,17.57
2018-11-29T17:20:08.852Z,23.20
2018-11-29T17:22:36.848Z,18.87
2018-11-29T17:25:05.858Z,19.67
2018-11-29T17:27:33.885Z,15.70
2018-11-29T17:30:01.884Z,18.33
2018-11-29T17:32:30.055Z,21.00
2018-11-29T17:34:58.194Z,13.00
2018-11-29T17:37:26.355Z,20.87
2018-11-29T17:39:54.380Z,16.73
2018-11-29T17:42:22.407Z,20.77
2018-11-29T17:44:50.467Z,21.30
2018-11-29T17:47:18.482Z,16.60
2018-11-29T17:49:46.549Z,21.37
2018-11-29T17:52:14.628Z,18.17
2018-11-29T17:54:42.662Z,17.73
2018-11-29T17:57:10.982Z,21.67
2018-11-29T17:59:38.976Z,16.27
2018-11-29T18:02:06.992Z,12.70
2018-11-29T18:04:35.121Z,17.43
2018-11-29T18:07:03.199Z,12.00
2018-11-29T18:09:31.210Z,18.80
2018-11-29T18:11:59.274Z,18.67
2018-11-29T18:14:27.399Z,22.77
2018-11-29T18:16:55.453Z,16.30
2018-11-29T18:19:23.579Z,22.97
2018-11-29T18:21:51.661Z,17.10
2018-11-29T18:24:19.600Z,19.27
2018-11-29T18:26:47.611Z,19.10
2018-11-29T18:29:15.658Z,14.43
2018-11-29T18:31:43.701Z,18.97
2018-11-29T18:34:11.739Z,17.60
2018-11-29T18:36:39.743Z,15.87
2018-11-29T18:39:09.040Z,18.10
2018-11-29T18:41:37.049Z,15.60
2018-11-29T18:44:05.472Z,16.20
2018-11-29T18:46:33.541Z,19.63
2018-11-29T18:49:01.567Z,16.97
2018-11-29T18:51:29.575Z,15.17
2018-11-29T18:53:57.608Z,15.40
2018-11-29T18:56:25.662Z,13.67
2018-11-29T18:58:53.650Z,25.37
2018-11-29T19:01:21.699Z,15.50
2018-11-29T19:03:49.695Z,18.23
2018-11-29T19:06:17.911Z,15.40
2018-11-29T19:08:45.924Z,15.33
2018-11-29T19:11:13.947Z,15.90
2018-11-29T19:13:41.973Z,14.77
2018-11-29T19:16:09.985Z,12.20
2018-11-29T19:18:38.005Z,16.90
2018-11-29T19:21:06.585Z,12.50
2018-11-29T19:23:35.263Z,25.20
2018-11-29T19:26:02.658Z,16.03
2018-11-29T19:28:30.719Z,23.60
2018-11-29T19:30:58.761Z,10.47
2018-11-29T19:33:27.559Z,14.97
2018-11-29T19:35:55.828Z,13.53
2018-11-29T19:38:23.857Z,14.83
2018-11-29T19:40:51.891Z,12.90
2018-11-29T19:43:19.922Z,13.47
2018-11-29T19:45:47.948Z,12.30
2018-11-29T19:48:15.963Z,10.13
2018-11-29T19:50:43.939Z,10.23
2018-11-29T19:53:15.402Z,9.23
2018-11-29T19:55:43.551Z,10.63
2018-11-29T19:58:11.588Z,11.43
2018-11-29T20:00:39.706Z,11.03
2018-11-29T20:03:07.833Z,10.27
2018-11-29T20:05:35.831Z,11.00
2018-11-29T20:08:03.975Z,13.00
2018-11-29T20:10:31.958Z,7.27
2018-11-29T20:13:06.589Z,11.67
2018-11-29T20:15:36.603Z,13.07
2018-11-29T20:18:04.623Z,17.63
2018-11-29T20:20:32.696Z,10.50
2018-11-29T20:23:00.700Z,9.83
2018-11-29T20:25:28.703Z,9.30
2018-11-29T20:27:56.718Z,15.57
2018-11-29T20:30:24.940Z,11.93
2018-11-29T20:32:54.166Z,11.40
2018-11-29T20:35:22.203Z,9.17
2018-11-29T20:37:51.176Z,11.03
2018-11-29T20:40:20.595Z,10.07
2018-11-29T20:42:49.484Z,10.40
2018-11-29T20:45:20.926Z,11.00
2018-11-29T20:47:48.939Z,7.83
2018-11-29T20:50:18.333Z,14.97
2018-11-29T20:52:47.102Z,10.03
2018-11-29T20:55:20.958Z,11.60
2018-11-29T20:57:48.962Z,9.80
2018-11-29T21:00:16.974Z,9.60
2018-11-29T21:02:44.993Z,10.10
2018-11-29T21:05:14.241Z,10.23
2018-11-29T21:07:44.441Z,9.33
2018-11-29T21:10:15.852Z,25.53
2018-11-29T21:12:43.866Z,8.80
2018-11-29T21:15:11.878Z,6.30
2018-11-29T21:17:39.916Z,13.30
2018-11-29T21:20:09.832Z,10.80
2018-11-29T21:22:37.858Z,11.13
2018-11-29T21:25:08.826Z,9.50
2018-11-29T21:27:36.822Z,10.57
2018-11-29T21:30:07.513Z,8.03
2018-11-29T21:32:35.539Z,10.80
2018-11-29T21:35:03.618Z,8.63
2018-11-29T21:37:31.656Z,9.90
2018-11-29T21:39:59.726Z,9.20
2018-11-29T21:42:27.839Z,13.37
2018-11-29T21:44:55.836Z,11.80
2018-11-29T21:47:23.827Z,10.57
2018-11-29T21:49:51.975Z,12.90
2018-11-29T21:52:20.020Z,7.60
2018-11-29T21:54:48.250Z,9.33
2018-11-29T21:57:16.238Z,7.93
2018-11-29T21:59:44.350Z,10.00
2018-11-29T22:02:12.409Z,10.97
2018-11-29T22:04:40.434Z,7.60
2018-11-29T22:07:08.487Z,9.50
2018-11-29T22:09:36.539Z,7.23
2018-11-29T22:12:04.556Z,8.87
2018-11-29T22:14:32.560Z,7.83
2018-11-29T22:17:00.754Z,7.53
2018-11-29T22:19:28.774Z,6.97
2018-11-29T22:21:56.875Z,9.40
2018-11-29T22:24:25.066Z,10.10
2018-11-29T22:26:53.268Z,8.80
2018-11-29T22:29:21.287Z,8.17
2018-11-29T22:31:49.402Z,8.47
2018-11-29T22:34:18.394Z,6.60
2018-11-29T22:36:46.502Z,5.87
2018-11-29T22:39:15.643Z,7.37
2018-11-29T22:41:43.723Z,18.73
2018-11-29T22:44:11.714Z,11.10
2018-11-29T22:46:39.820Z,5.80
2018-11-29T22:49:07.835Z,7.40
2018-11-29T22:51:35.951Z,8.70
2018-11-29T22:54:04.062Z,6.13
2018-11-29T22:56:32.076Z,6.47
2018-11-29T22:59:00.142Z,9.13
2018-11-29T23:01:28.464Z,8.40
2018-11-29T23:03:57.311Z,11.53
2018-11-29T23:06:25.353Z,7.10
2018-11-29T23:08:53.372Z,8.87
2018-11-29T23:11:21.394Z,7.20
2018-11-29T23:13:49.399Z,5.40
2018-11-29T23:16:17.497Z,5.80
2018-11-29T23:18:45.499Z,12.20
2018-11-29T23:21:13.567Z,7.73
2018-11-29T23:23:41.624Z,10.33
2018-11-29T23:26:09.638Z,6.30
2018-11-29T23:28:37.731Z,8.40
2018-11-29T23:31:05.827Z,12.50
2018-11-29T23:33:33.856Z,12.67
2018-11-29T23:36:01.857Z,10.90
2018-11-29T23:38:29.873Z,10.60
2018-11-29T23:40:57.896Z,9.77
2018-11-29T23:43:25.916Z,5.80
2018-11-29T23:45:53.943Z,7.40
2018-11-29T23:48:21.959Z,6.93
2018-11-29T23:50:49.965Z,8.60
2018-11-29T23:53:17.983Z,8.27
2018-11-29T23:55:45.979Z,6.60
2018-11-29T23:58:13.995Z,4.83
